sensor_id;sensor_type;location;lat;lon;timestamp;pressure;altitude;pressure_sealevel;temperature;humidity
38616;BME280;24370;51.986;4.666;2024-02-23T00:02:11;98716.84;;;14.81;43.54
38616;BME280;24370;51.986;4.666;2024-02-23T00:04:36;98727.16;;;15.41;42.69
38616;BME280;24370;51.986;4.666;2024-02-23T00:07:02;98750.13;;;14.96;43.80
38616;BME280;24370;51.986;4.666;2024-02-23T00:09:30;98733.94;;;15.31;43.41
38616;BME280;24370;51.986;4.666;2024-02-23T00:11:55;98734.69;;;15.19;43.04
38616;BME280;24370;51.986;4.666;2024-02-23T00:14:21;98738.44;;;16.38;41.59
38616;BME280;24370;51.986;4.666;2024-02-23T00:16:47;98744.13;;;15.92;41.52
38616;BME280;24370;51.986;4.666;2024-02-23T00:19:13;98727.94;;;15.98;41.10
38616;BME280;24370;51.986;4.666;2024-02-23T00:21:38;98737.72;;;16.62;39.89
38616;BME280;24370;51.986;4.666;2024-02-23T00:24:05;98744.81;;;15.54;41.33
38616;BME280;24370;51.986;4.666;2024-02-23T00:26:31;98753.94;;;16.30;40.84
38616;BME280;24370;51.986;4.666;2024-02-23T00:28:56;98758.47;;;15.17;42.81
38616;BME280;24370;51.986;4.666;2024-02-23T00:31:22;98779.53;;;15.17;43.65
38616;BME280;24370;51.986;4.666;2024-02-23T00:33:47;98792.31;;;14.03;45.12
38616;BME280;24370;51.986;4.666;2024-02-23T00:36:13;98788.16;;;14.90;42.95
38616;BME280;24370;51.986;4.666;2024-02-23T00:38:38;98781.47;;;14.10;43.63
38616;BME280;24370;51.986;4.666;2024-02-23T00:41:03;98773.50;;;14.56;43.79
38616;BME280;24370;51.986;4.666;2024-02-23T00:43:37;98774.53;;;14.69;43.78
38616;BME280;24370;51.986;4.666;2024-02-23T00:46:03;98774.94;;;14.92;43.95
38616;BME280;24370;51.986;4.666;2024-02-23T00:48:29;98792.59;;;15.19;43.49
38616;BME280;24370;51.986;4.666;2024-02-23T00:50:55;98794.28;;;15.20;43.67
38616;BME280;24370;51.986;4.666;2024-02-23T00:53:20;98801.19;;;14.63;44.92
38616;BME280;24370;51.986;4.666;2024-02-23T00:55:45;98793.81;;;15.84;42.67
38616;BME280;24370;51.986;4.666;2024-02-23T00:58:11;98808.13;;;15.80;43.12
38616;BME280;24370;51.986;4.666;2024-02-23T01:00:36;98813.13;;;14.53;45.19
38616;BME280;24370;51.986;4.666;2024-02-23T01:03:02;98808.34;;;14.90;44.56
38616;BME280;24370;51.986;4.666;2024-02-23T01:05:27;98797.38;;;15.12;43.53
38616;BME280;24370;51.986;4.666;2024-02-23T01:07:52;98804.38;;;15.69;42.34
38616;BME280;24370;51.986;4.666;2024-02-23T01:10:18;98817.19;;;15.61;43.07
38616;BME280;24370;51.986;4.666;2024-02-23T01:12:43;98822.81;;;14.97;43.97
38616;BME280;24370;51.986;4.666;2024-02-23T01:15:09;98827.34;;;15.53;42.41
38616;BME280;24370;51.986;4.666;2024-02-23T01:17:34;98837.97;;;15.08;42.99
38616;BME280;24370;51.986;4.666;2024-02-23T01:20:00;98846.88;;;15.05;41.94
38616;BME280;24370;51.986;4.666;2024-02-23T01:22:25;98842.66;;;14.88;42.94
38616;BME280;24370;51.986;4.666;2024-02-23T01:24:50;98844.84;;;14.96;42.47
38616;BME280;24370;51.986;4.666;2024-02-23T01:27:16;98831.16;;;15.90;41.46
38616;BME280;24370;51.986;4.666;2024-02-23T01:29:41;98831.59;;;15.41;41.07
38616;BME280;24370;51.986;4.666;2024-02-23T01:32:07;98837.69;;;15.56;41.47
38616;BME280;24370;51.986;4.666;2024-02-23T01:34:32;98840.28;;;15.99;40.74
38616;BME280;24370;51.986;4.666;2024-02-23T01:36:58;98842.00;;;15.71;41.45
38616;BME280;24370;51.986;4.666;2024-02-23T01:39:24;98842.03;;;15.57;41.37
38616;BME280;24370;51.986;4.666;2024-02-23T01:41:49;98844.59;;;14.70;42.51
38616;BME280;24370;51.986;4.666;2024-02-23T01:44:15;98852.94;;;15.36;41.63
38616;BME280;24370;51.986;4.666;2024-02-23T01:46:42;98850.72;;;14.55;42.98
38616;BME280;24370;51.986;4.666;2024-02-23T01:49:09;98853.69;;;15.24;42.12
38616;BME280;24370;51.986;4.666;2024-02-23T01:51:34;98860.22;;;14.88;42.35
38616;BME280;24370;51.986;4.666;2024-02-23T01:54:01;98855.19;;;15.57;41.42
38616;BME280;24370;51.986;4.666;2024-02-23T01:56:26;98852.50;;;16.00;40.55
38616;BME280;24370;51.986;4.666;2024-02-23T01:58:52;98852.91;;;15.07;42.04
38616;BME280;24370;51.986;4.666;2024-02-23T02:01:19;98855.97;;;14.55;43.48
38616;BME280;24370;51.986;4.666;2024-02-23T02:03:44;98862.31;;;15.26;42.82
38616;BME280;24370;51.986;4.666;2024-02-23T02:06:10;98855.50;;;14.93;43.21
38616;BME280;24370;51.986;4.666;2024-02-23T02:08:36;98867.78;;;15.23;42.36
38616;BME280;24370;51.986;4.666;2024-02-23T02:11:02;98862.88;;;15.02;43.17
38616;BME280;24370;51.986;4.666;2024-02-23T02:13:31;98867.47;;;14.68;42.72
38616;BME280;24370;51.986;4.666;2024-02-23T02:15:59;98875.38;;;15.27;42.61
38616;BME280;24370;51.986;4.666;2024-02-23T02:18:25;98872.47;;;15.47;42.98
38616;BME280;24370;51.986;4.666;2024-02-23T02:20:54;98874.41;;;14.85;43.61
38616;BME280;24370;51.986;4.666;2024-02-23T02:23:19;98872.00;;;14.66;44.54
38616;BME280;24370;51.986;4.666;2024-02-23T02:25:45;98873.78;;;15.10;43.67
38616;BME280;24370;51.986;4.666;2024-02-23T02:28:11;98871.53;;;15.48;42.95
38616;BME280;24370;51.986;4.666;2024-02-23T02:30:37;98882.91;;;14.74;45.07
38616;BME280;24370;51.986;4.666;2024-02-23T02:33:02;98885.31;;;13.83;45.81
38616;BME280;24370;51.986;4.666;2024-02-23T02:35:28;98875.59;;;14.80;44.13
38616;BME280;24370;51.986;4.666;2024-02-23T02:37:55;98874.47;;;13.73;46.74
38616;BME280;24370;51.986;4.666;2024-02-23T02:40:21;98882.13;;;14.26;45.62
38616;BME280;24370;51.986;4.666;2024-02-23T02:42:46;98893.16;;;13.85;45.48
38616;BME280;24370;51.986;4.666;2024-02-23T02:45:12;98874.66;;;14.02;45.70
38616;BME280;24370;51.986;4.666;2024-02-23T02:47:37;98887.88;;;14.01;45.37
38616;BME280;24370;51.986;4.666;2024-02-23T02:50:03;98877.03;;;13.75;46.27
38616;BME280;24370;51.986;4.666;2024-02-23T02:52:29;98883.22;;;13.40;46.95
38616;BME280;24370;51.986;4.666;2024-02-23T02:54:54;98878.97;;;13.87;46.08
38616;BME280;24370;51.986;4.666;2024-02-23T02:57:20;98880.28;;;13.96;45.81
38616;BME280;24370;51.986;4.666;2024-02-23T02:59:45;98887.50;;;14.55;44.54
38616;BME280;24370;51.986;4.666;2024-02-23T03:02:11;98877.63;;;14.28;44.64
38616;BME280;24370;51.986;4.666;2024-02-23T03:04:37;98877.22;;;13.88;45.92
38616;BME280;24370;51.986;4.666;2024-02-23T03:07:02;98888.91;;;14.30;45.30
38616;BME280;24370;51.986;4.666;2024-02-23T03:09:27;98888.97;;;14.45;44.52
38616;BME280;24370;51.986;4.666;2024-02-23T03:11:53;98890.88;;;14.57;44.55
38616;BME280;24370;51.986;4.666;2024-02-23T03:14:18;98899.88;;;14.99;43.91
38616;BME280;24370;51.986;4.666;2024-02-23T03:16:45;98896.19;;;14.25;44.88
38616;BME280;24370;51.986;4.666;2024-02-23T03:19:12;98896.28;;;14.86;43.68
38616;BME280;24370;51.986;4.666;2024-02-23T03:21:38;98904.63;;;13.66;46.84
38616;BME280;24370;51.986;4.666;2024-02-23T03:24:04;98908.88;;;13.35;46.71
38616;BME280;24370;51.986;4.666;2024-02-23T03:26:29;98904.59;;;14.78;44.54
38616;BME280;24370;51.986;4.666;2024-02-23T03:28:54;98905.75;;;14.58;44.33
38616;BME280;24370;51.986;4.666;2024-02-23T03:31:20;98898.31;;;14.34;44.91
38616;BME280;24370;51.986;4.666;2024-02-23T03:33:45;98900.22;;;13.67;46.61
38616;BME280;24370;51.986;4.666;2024-02-23T03:36:10;98908.88;;;14.49;45.21
38616;BME280;24370;51.986;4.666;2024-02-23T03:38:36;98902.38;;;14.24;45.09
38616;BME280;24370;51.986;4.666;2024-02-23T03:41:01;98906.00;;;13.73;46.14
38616;BME280;24370;51.986;4.666;2024-02-23T03:43:26;98910.72;;;12.81;48.07
38616;BME280;24370;51.986;4.666;2024-02-23T03:45:52;98906.16;;;13.70;46.30
38616;BME280;24370;51.986;4.666;2024-02-23T03:48:18;98908.28;;;13.80;46.35
38616;BME280;24370;51.986;4.666;2024-02-23T03:50:43;98897.47;;;14.18;45.81
38616;BME280;24370;51.986;4.666;2024-02-23T03:53:08;98910.06;;;13.79;45.89
38616;BME280;24370;51.986;4.666;2024-02-23T03:55:34;98910.41;;;13.39;46.83
38616;BME280;24370;51.986;4.666;2024-02-23T03:57:59;98908.41;;;13.27;47.59
38616;BME280;24370;51.986;4.666;2024-02-23T04:00:24;98919.97;;;13.05;47.95
38616;BME280;24370;51.986;4.666;2024-02-23T04:02:50;98913.94;;;13.21;47.66
38616;BME280;24370;51.986;4.666;2024-02-23T04:05:15;98918.00;;;13.62;47.02
38616;BME280;24370;51.986;4.666;2024-02-23T04:07:41;98901.50;;;15.02;44.21
38616;BME280;24370;51.986;4.666;2024-02-23T04:10:06;98910.19;;;12.92;48.38
38616;BME280;24370;51.986;4.666;2024-02-23T04:12:32;98921.34;;;13.30;48.13
38616;BME280;24370;51.986;4.666;2024-02-23T04:14:57;98928.44;;;13.28;48.46
38616;BME280;24370;51.986;4.666;2024-02-23T04:17:23;98913.88;;;13.73;47.14
38616;BME280;24370;51.986;4.666;2024-02-23T04:19:48;98911.28;;;14.37;46.43
38616;BME280;24370;51.986;4.666;2024-02-23T04:22:13;98918.84;;;13.62;47.26
38616;BME280;24370;51.986;4.666;2024-02-23T04:24:39;98913.53;;;14.43;46.17
38616;BME280;24370;51.986;4.666;2024-02-23T04:27:05;98923.41;;;13.92;47.05
38616;BME280;24370;51.986;4.666;2024-02-23T04:29:31;98926.69;;;13.80;47.59
38616;BME280;24370;51.986;4.666;2024-02-23T04:31:57;98929.25;;;13.97;46.12
38616;BME280;24370;51.986;4.666;2024-02-23T04:34:23;98926.59;;;13.81;47.23
38616;BME280;24370;51.986;4.666;2024-02-23T04:36:48;98936.47;;;14.10;46.67
38616;BME280;24370;51.986;4.666;2024-02-23T04:39:14;98927.03;;;14.37;45.42
38616;BME280;24370;51.986;4.666;2024-02-23T04:41:39;98924.25;;;14.08;46.34
38616;BME280;24370;51.986;4.666;2024-02-23T04:44:05;98932.03;;;14.58;45.62
38616;BME280;24370;51.986;4.666;2024-02-23T04:46:30;98925.75;;;14.45;45.55
38616;BME280;24370;51.986;4.666;2024-02-23T04:48:56;98925.88;;;15.20;43.99
38616;BME280;24370;51.986;4.666;2024-02-23T04:51:21;98939.09;;;14.10;46.02
38616;BME280;24370;51.986;4.666;2024-02-23T04:53:48;98931.06;;;14.91;44.62
38616;BME280;24370;51.986;4.666;2024-02-23T04:56:14;98925.81;;;14.75;44.71
38616;BME280;24370;51.986;4.666;2024-02-23T04:58:39;98943.72;;;13.55;46.77
38616;BME280;24370;51.986;4.666;2024-02-23T05:01:06;98943.16;;;14.15;46.04
38616;BME280;24370;51.986;4.666;2024-02-23T05:03:31;98931.75;;;14.79;45.02
38616;BME280;24370;51.986;4.666;2024-02-23T05:05:57;98924.91;;;15.80;42.78
38616;BME280;24370;51.986;4.666;2024-02-23T05:08:23;98931.44;;;14.53;45.94
38616;BME280;24370;51.986;4.666;2024-02-23T05:10:50;98926.28;;;14.98;44.41
38616;BME280;24370;51.986;4.666;2024-02-23T05:13:16;98934.16;;;14.67;44.72
38616;BME280;24370;51.986;4.666;2024-02-23T05:15:41;98921.00;;;15.42;43.74
38616;BME280;24370;51.986;4.666;2024-02-23T05:18:07;98911.63;;;15.53;43.68
38616;BME280;24370;51.986;4.666;2024-02-23T05:20:32;98921.84;;;14.84;45.03
38616;BME280;24370;51.986;4.666;2024-02-23T05:22:57;98922.22;;;14.92;44.33
38616;BME280;24370;51.986;4.666;2024-02-23T05:25:23;98924.75;;;14.31;45.94
38616;BME280;24370;51.986;4.666;2024-02-23T05:27:48;98933.34;;;13.69;46.53
38616;BME280;24370;51.986;4.666;2024-02-23T05:30:13;98916.88;;;14.31;46.08
38616;BME280;24370;51.986;4.666;2024-02-23T05:32:39;98912.44;;;14.80;44.87
38616;BME280;24370;51.986;4.666;2024-02-23T05:35:05;98903.06;;;14.90;44.54
38616;BME280;24370;51.986;4.666;2024-02-23T05:37:31;98908.34;;;14.74;44.80
38616;BME280;24370;51.986;4.666;2024-02-23T05:39:56;98906.78;;;14.86;44.00
38616;BME280;24370;51.986;4.666;2024-02-23T05:42:22;98896.16;;;15.18;43.95
38616;BME280;24370;51.986;4.666;2024-02-23T05:44:48;98891.78;;;14.41;45.46
38616;BME280;24370;51.986;4.666;2024-02-23T05:47:16;98897.63;;;14.15;45.39
38616;BME280;24370;51.986;4.666;2024-02-23T05:49:42;98899.13;;;14.97;44.28
38616;BME280;24370;51.986;4.666;2024-02-23T05:52:08;98897.09;;;15.17;43.98
38616;BME280;24370;51.986;4.666;2024-02-23T05:54:34;98900.94;;;14.81;44.35
38616;BME280;24370;51.986;4.666;2024-02-23T05:57:00;98897.34;;;15.86;42.41
38616;BME280;24370;51.986;4.666;2024-02-23T05:59:26;98901.44;;;15.75;42.45
38616;BME280;24370;51.986;4.666;2024-02-23T06:01:52;98905.69;;;14.90;43.27
38616;BME280;24370;51.986;4.666;2024-02-23T06:04:22;98900.09;;;14.02;44.99
38616;BME280;24370;51.986;4.666;2024-02-23T06:06:47;98917.56;;;15.12;43.61
38616;BME280;24370;51.986;4.666;2024-02-23T06:09:12;98906.94;;;14.36;44.65
38616;BME280;24370;51.986;4.666;2024-02-23T06:11:38;98900.25;;;14.15;45.18
38616;BME280;24370;51.986;4.666;2024-02-23T06:14:03;98909.59;;;14.04;45.43
38616;BME280;24370;51.986;4.666;2024-02-23T06:16:29;98904.81;;;14.59;44.75
38616;BME280;24370;51.986;4.666;2024-02-23T06:18:54;98906.03;;;14.37;45.19
38616;BME280;24370;51.986;4.666;2024-02-23T06:21:19;98916.88;;;14.63;43.93
38616;BME280;24370;51.986;4.666;2024-02-23T06:23:45;98909.72;;;15.55;42.65
38616;BME280;24370;51.986;4.666;2024-02-23T06:26:11;98907.19;;;14.48;44.80
38616;BME280;24370;51.986;4.666;2024-02-23T06:28:37;98921.19;;;13.51;46.75
38616;BME280;24370;51.986;4.666;2024-02-23T06:31:05;98924.63;;;13.69;45.66
38616;BME280;24370;51.986;4.666;2024-02-23T06:33:31;98913.81;;;13.91;45.02
38616;BME280;24370;51.986;4.666;2024-02-23T06:35:56;98917.72;;;13.84;45.14
38616;BME280;24370;51.986;4.666;2024-02-23T06:38:22;98910.91;;;14.43;43.92
38616;BME280;24370;51.986;4.666;2024-02-23T06:40:47;98907.88;;;14.03;45.25
38616;BME280;24370;51.986;4.666;2024-02-23T06:43:13;98902.34;;;13.60;45.39
38616;BME280;24370;51.986;4.666;2024-02-23T06:45:38;98905.31;;;14.66;43.68
38616;BME280;24370;51.986;4.666;2024-02-23T06:48:04;98894.88;;;14.95;43.16
38616;BME280;24370;51.986;4.666;2024-02-23T06:50:29;98893.03;;;14.66;42.96
38616;BME280;24370;51.986;4.666;2024-02-23T06:52:55;98909.59;;;14.04;44.41
38616;BME280;24370;51.986;4.666;2024-02-23T06:55:20;98911.19;;;13.91;44.66
38616;BME280;24370;51.986;4.666;2024-02-23T06:57:46;98918.50;;;13.52;45.41
38616;BME280;24370;51.986;4.666;2024-02-23T07:00:12;98909.56;;;14.36;44.41
38616;BME280;24370;51.986;4.666;2024-02-23T07:02:38;98910.72;;;14.79;43.35
38616;BME280;24370;51.986;4.666;2024-02-23T07:05:03;98916.53;;;14.05;45.58
38616;BME280;24370;51.986;4.666;2024-02-23T07:07:32;98908.19;;;14.61;43.39
38616;BME280;24370;51.986;4.666;2024-02-23T07:10:02;98919.25;;;14.20;44.40
38616;BME280;24370;51.986;4.666;2024-02-23T07:12:27;98916.66;;;15.27;42.73
38616;BME280;24370;51.986;4.666;2024-02-23T07:14:54;98918.47;;;15.70;41.77
38616;BME280;24370;51.986;4.666;2024-02-23T07:17:20;98917.00;;;15.06;42.52
38616;BME280;24370;51.986;4.666;2024-02-23T07:19:45;98914.75;;;15.00;42.73
38616;BME280;24370;51.986;4.666;2024-02-23T07:22:11;98934.72;;;14.72;43.30
38616;BME280;24370;51.986;4.666;2024-02-23T07:24:40;98925.34;;;14.52;44.29
38616;BME280;24370;51.986;4.666;2024-02-23T07:27:06;98911.13;;;14.87;43.20
38616;BME280;24370;51.986;4.666;2024-02-23T07:29:31;98916.69;;;14.02;44.41
38616;BME280;24370;51.986;4.666;2024-02-23T07:31:57;98902.78;;;14.64;43.81
38616;BME280;24370;51.986;4.666;2024-02-23T07:34:22;98901.13;;;14.78;44.02
38616;BME280;24370;51.986;4.666;2024-02-23T07:36:48;98898.31;;;14.02;45.15
38616;BME280;24370;51.986;4.666;2024-02-23T07:39:16;98893.66;;;14.07;44.88
38616;BME280;24370;51.986;4.666;2024-02-23T07:41:41;98901.09;;;13.99;45.77
38616;BME280;24370;51.986;4.666;2024-02-23T07:44:07;98891.75;;;13.78;46.26
38616;BME280;24370;51.986;4.666;2024-02-23T07:46:32;98909.34;;;13.44;47.43
38616;BME280;24370;51.986;4.666;2024-02-23T07:48:58;98900.09;;;14.18;45.93
38616;BME280;24370;51.986;4.666;2024-02-23T07:51:23;98898.31;;;13.53;47.83
38616;BME280;24370;51.986;4.666;2024-02-23T07:53:48;98893.91;;;12.85;49.26
38616;BME280;24370;51.986;4.666;2024-02-23T07:56:14;98904.72;;;12.96;50.05
38616;BME280;24370;51.986;4.666;2024-02-23T07:58:39;98889.25;;;13.92;47.29
38616;BME280;24370;51.986;4.666;2024-02-23T08:01:05;98895.44;;;13.42;48.35
38616;BME280;24370;51.986;4.666;2024-02-23T08:03:30;98876.38;;;14.03;47.86
38616;BME280;24370;51.986;4.666;2024-02-23T08:05:55;98883.56;;;13.84;48.26
38616;BME280;24370;51.986;4.666;2024-02-23T08:08:21;98882.81;;;13.98;47.87
38616;BME280;24370;51.986;4.666;2024-02-23T08:10:49;98890.97;;;13.26;49.78
38616;BME280;24370;51.986;4.666;2024-02-23T08:13:14;98880.34;;;13.79;48.87
38616;BME280;24370;51.986;4.666;2024-02-23T08:15:40;98890.13;;;13.59;48.92
38616;BME280;24370;51.986;4.666;2024-02-23T08:18:05;98894.56;;;14.06;48.30
38616;BME280;24370;51.986;4.666;2024-02-23T08:20:31;98891.63;;;14.13;47.96
38616;BME280;24370;51.986;4.666;2024-02-23T08:22:56;98901.88;;;12.83;50.18
38616;BME280;24370;51.986;4.666;2024-02-23T08:25:22;98889.44;;;13.89;48.88
38616;BME280;24370;51.986;4.666;2024-02-23T08:27:47;98892.69;;;12.92;50.85
38616;BME280;24370;51.986;4.666;2024-02-23T08:30:14;98899.44;;;13.31;50.73
38616;BME280;24370;51.986;4.666;2024-02-23T08:32:40;98898.41;;;13.85;49.38
38616;BME280;24370;51.986;4.666;2024-02-23T08:35:06;98894.94;;;14.00;48.92
38616;BME280;24370;51.986;4.666;2024-02-23T08:37:31;98903.00;;;12.95;50.71
38616;BME280;24370;51.986;4.666;2024-02-23T08:39:56;98899.75;;;13.92;48.91
38616;BME280;24370;51.986;4.666;2024-02-23T08:42:22;98906.00;;;13.22;50.21
38616;BME280;24370;51.986;4.666;2024-02-23T08:44:47;98906.69;;;13.26;50.27
38616;BME280;24370;51.986;4.666;2024-02-23T08:47:13;98919.97;;;13.40;50.38
38616;BME280;24370;51.986;4.666;2024-02-23T08:49:38;98903.50;;;12.86;51.62
38616;BME280;24370;51.986;4.666;2024-02-23T08:52:04;98892.84;;;13.73;49.13
38616;BME280;24370;51.986;4.666;2024-02-23T08:54:30;98890.06;;;14.40;48.70
38616;BME280;24370;51.986;4.666;2024-02-23T08:56:55;98882.13;;;13.94;49.38
38616;BME280;24370;51.986;4.666;2024-02-23T08:59:21;98877.31;;;13.53;49.96
38616;BME280;24370;51.986;4.666;2024-02-23T09:01:46;98894.50;;;13.43;50.23
38616;BME280;24370;51.986;4.666;2024-02-23T09:04:12;98895.59;;;13.21;50.81
38616;BME280;24370;51.986;4.666;2024-02-23T09:06:38;98879.38;;;14.43;47.95
38616;BME280;24370;51.986;4.666;2024-02-23T09:09:03;98886.69;;;14.06;49.50
38616;BME280;24370;51.986;4.666;2024-02-23T09:11:29;98893.16;;;13.34;50.04
38616;BME280;24370;51.986;4.666;2024-02-23T09:13:54;98873.47;;;14.24;48.52
38616;BME280;24370;51.986;4.666;2024-02-23T09:16:20;98869.19;;;14.07;49.26
38616;BME280;24370;51.986;4.666;2024-02-23T09:18:47;98882.41;;;14.52;47.92
38616;BME280;24370;51.986;4.666;2024-02-23T09:21:12;98895.69;;;14.02;48.56
38616;BME280;24370;51.986;4.666;2024-02-23T09:23:39;98899.41;;;13.49;50.42
38616;BME280;24370;51.986;4.666;2024-02-23T09:26:09;98880.03;;;13.35;50.62
38616;BME280;24370;51.986;4.666;2024-02-23T09:28:35;98879.91;;;14.02;49.56
38616;BME280;24370;51.986;4.666;2024-02-23T09:31:00;98891.78;;;13.94;49.15
38616;BME280;24370;51.986;4.666;2024-02-23T09:33:26;98889.47;;;14.98;47.24
38616;BME280;24370;51.986;4.666;2024-02-23T09:35:51;98885.50;;;14.12;47.39
38616;BME280;24370;51.986;4.666;2024-02-23T09:38:16;98898.03;;;14.55;48.08
38616;BME280;24370;51.986;4.666;2024-02-23T09:40:42;98890.72;;;14.76;47.25
38616;BME280;24370;51.986;4.666;2024-02-23T09:43:08;98886.66;;;15.73;45.71
38616;BME280;24370;51.986;4.666;2024-02-23T09:45:34;98897.94;;;15.17;46.24
38616;BME280;24370;51.986;4.666;2024-02-23T09:48:00;98906.78;;;14.86;48.08
38616;BME280;24370;51.986;4.666;2024-02-23T09:50:29;98903.13;;;14.42;48.14
38616;BME280;24370;51.986;4.666;2024-02-23T09:52:56;98909.94;;;14.30;48.58
38616;BME280;24370;51.986;4.666;2024-02-23T09:55:23;98921.28;;;14.47;48.55
38616;BME280;24370;51.986;4.666;2024-02-23T09:57:51;98921.72;;;15.30;47.41
38616;BME280;24370;51.986;4.666;2024-02-23T10:00:20;98930.16;;;15.06;47.53
38616;BME280;24370;51.986;4.666;2024-02-23T10:02:46;98937.91;;;14.15;48.87
38616;BME280;24370;51.986;4.666;2024-02-23T10:05:12;98917.94;;;14.75;48.19
38616;BME280;24370;51.986;4.666;2024-02-23T10:07:39;98918.66;;;15.38;47.03
38616;BME280;24370;51.986;4.666;2024-02-23T10:10:08;98932.91;;;14.42;47.29
38616;BME280;24370;51.986;4.666;2024-02-23T10:12:34;98933.03;;;15.32;47.07
38616;BME280;24370;51.986;4.666;2024-02-23T10:15:00;98920.44;;;16.09;45.51
38616;BME280;24370;51.986;4.666;2024-02-23T10:17:32;98924.59;;;14.97;47.51
38616;BME280;24370;51.986;4.666;2024-02-23T10:19:59;98927.78;;;17.13;43.32
38616;BME280;24370;51.986;4.666;2024-02-23T10:22:24;98936.25;;;16.09;45.17
38616;BME280;24370;51.986;4.666;2024-02-23T10:24:55;98936.09;;;16.94;44.33
38616;BME280;24370;51.986;4.666;2024-02-23T10:27:21;98940.47;;;16.12;44.65
38616;BME280;24370;51.986;4.666;2024-02-23T10:29:49;98941.03;;;16.59;44.95
38616;BME280;24370;51.986;4.666;2024-02-23T10:32:15;98951.84;;;16.13;44.71
38616;BME280;24370;51.986;4.666;2024-02-23T10:34:42;98946.72;;;16.38;44.45
38616;BME280;24370;51.986;4.666;2024-02-23T10:37:08;98934.03;;;16.58;43.58
38616;BME280;24370;51.986;4.666;2024-02-23T10:39:36;98947.31;;;16.84;42.62
38616;BME280;24370;51.986;4.666;2024-02-23T10:42:03;98962.41;;;16.13;43.96
38616;BME280;24370;51.986;4.666;2024-02-23T10:44:32;98928.94;;;15.86;44.45
38616;BME280;24370;51.986;4.666;2024-02-23T10:46:58;98954.00;;;17.81;41.36
38616;BME280;24370;51.986;4.666;2024-02-23T10:49:24;98955.19;;;16.43;44.02
38616;BME280;24370;51.986;4.666;2024-02-23T10:52:00;98967.28;;;17.02;42.74
38616;BME280;24370;51.986;4.666;2024-02-23T10:54:27;98962.16;;;17.39;42.09
38616;BME280;24370;51.986;4.666;2024-02-23T10:56:52;98961.88;;;16.76;43.25
38616;BME280;24370;51.986;4.666;2024-02-23T10:59:21;98957.94;;;16.69;42.36
38616;BME280;24370;51.986;4.666;2024-02-23T11:01:49;98956.41;;;16.10;43.59
38616;BME280;24370;51.986;4.666;2024-02-23T11:04:16;98972.91;;;17.75;41.33
38616;BME280;24370;51.986;4.666;2024-02-23T11:06:42;98959.94;;;15.52;44.13
38616;BME280;24370;51.986;4.666;2024-02-23T11:09:08;98983.78;;;15.34;44.48
38616;BME280;24370;51.986;4.666;2024-02-23T11:11:37;98970.09;;;15.72;44.05
38616;BME280;24370;51.986;4.666;2024-02-23T11:14:07;98972.38;;;15.64;44.35
38616;BME280;24370;51.986;4.666;2024-02-23T11:16:38;98971.94;;;16.57;43.14
38616;BME280;24370;51.986;4.666;2024-02-23T11:19:05;98982.31;;;16.45;42.37
38616;BME280;24370;51.986;4.666;2024-02-23T11:21:37;98967.94;;;16.64;41.96
38616;BME280;24370;51.986;4.666;2024-02-23T11:24:04;98959.75;;;16.13;42.47
38616;BME280;24370;51.986;4.666;2024-02-23T11:26:30;98982.00;;;15.80;43.92
38616;BME280;24370;51.986;4.666;2024-02-23T11:28:55;98975.19;;;16.88;42.03
38616;BME280;24370;51.986;4.666;2024-02-23T11:31:22;98982.97;;;16.76;42.15
38616;BME280;24370;51.986;4.666;2024-02-23T11:33:53;98983.09;;;15.61;44.07
38616;BME280;24370;51.986;4.666;2024-02-23T11:36:31;98991.69;;;16.64;41.92
38616;BME280;24370;51.986;4.666;2024-02-23T11:38:58;98986.50;;;17.17;41.82
38616;BME280;24370;51.986;4.666;2024-02-23T11:41:26;98985.91;;;17.39;41.24
38616;BME280;24370;51.986;4.666;2024-02-23T11:43:53;98998.47;;;16.68;41.88
38616;BME280;24370;51.986;4.666;2024-02-23T11:46:20;98989.22;;;16.34;43.04
38616;BME280;24370;51.986;4.666;2024-02-23T11:48:46;99007.22;;;16.27;41.97
38616;BME280;24370;51.986;4.666;2024-02-23T11:51:15;98991.72;;;16.50;42.32
38616;BME280;24370;51.986;4.666;2024-02-23T11:53:40;99021.09;;;15.71;44.26
38616;BME280;24370;51.986;4.666;2024-02-23T11:56:06;99008.13;;;16.82;43.17
38616;BME280;24370;51.986;4.666;2024-02-23T11:58:32;99002.19;;;16.78;43.64
38616;BME280;24370;51.986;4.666;2024-02-23T12:00:59;99006.38;;;16.68;43.01
38616;BME280;24370;51.986;4.666;2024-02-23T12:03:27;98996.69;;;16.96;42.97
38616;BME280;24370;51.986;4.666;2024-02-23T12:05:53;99010.16;;;16.64;42.89
38616;BME280;24370;51.986;4.666;2024-02-23T12:08:18;98999.47;;;17.99;40.73
38616;BME280;24370;51.986;4.666;2024-02-23T12:10:44;99008.28;;;17.34;40.86
38616;BME280;24370;51.986;4.666;2024-02-23T12:13:10;99006.22;;;16.42;43.24
38616;BME280;24370;51.986;4.666;2024-02-23T12:15:35;99002.19;;;16.78;41.99
38616;BME280;24370;51.986;4.666;2024-02-23T12:18:03;99013.88;;;16.89;42.18
38616;BME280;24370;51.986;4.666;2024-02-23T12:20:35;98993.13;;;16.83;42.19
38616;BME280;24370;51.986;4.666;2024-02-23T12:23:01;99002.25;;;17.19;41.11
38616;BME280;24370;51.986;4.666;2024-02-23T12:25:26;98999.97;;;16.58;42.28
38616;BME280;24370;51.986;4.666;2024-02-23T12:27:56;99004.59;;;17.36;41.27
38616;BME280;24370;51.986;4.666;2024-02-23T12:30:34;99004.81;;;16.93;41.50
38616;BME280;24370;51.986;4.666;2024-02-23T12:33:12;99008.44;;;17.58;40.99
38616;BME280;24370;51.986;4.666;2024-02-23T12:35:40;99012.47;;;17.10;41.38
38616;BME280;24370;51.986;4.666;2024-02-23T12:38:05;99005.75;;;17.32;40.96
38616;BME280;24370;51.986;4.666;2024-02-23T12:40:31;99004.31;;;17.79;40.03
38616;BME280;24370;51.986;4.666;2024-02-23T12:42:56;99011.56;;;16.97;41.08
38616;BME280;24370;51.986;4.666;2024-02-23T12:45:21;99015.72;;;18.19;39.22
38616;BME280;24370;51.986;4.666;2024-02-23T12:47:47;99019.84;;;17.05;40.76
38616;BME280;24370;51.986;4.666;2024-02-23T12:50:12;99035.59;;;17.86;39.67
38616;BME280;24370;51.986;4.666;2024-02-23T12:52:37;99019.97;;;16.89;40.98
38616;BME280;24370;51.986;4.666;2024-02-23T12:55:03;99027.78;;;16.91;40.60